sensor_id;sensor_type;location;lat;lon;timestamp;P1;durP1;ratioP1;P2;durP2;ratioP2
52530;SDS011;38441;52.894;6.040;2024-01-16T00:00:11;4.15;;;0.73;;
52530;SDS011;38441;52.894;6.040;2024-01-16T00:02:37;2.85;;;0.70;;
52530;SDS011;38441;52.894;6.040;2024-01-16T00:05:03;5.05;;;0.68;;
52530;SDS011;38441;52.894;6.040;2024-01-16T00:07:29;0.98;;;0.20;;
52530;SDS011;38441;52.894;6.040;2024-01-16T00:09:54;5.18;;;0.60;;
52530;SDS011;38441;52.894;6.040;2024-01-16T00:12:20;4.28;;;0.45;;
52530;SDS011;38441;52.894;6.040;2024-01-16T00:14:46;1.88;;;0.30;;
52530;SDS011;38441;52.894;6.040;2024-01-16T00:17:11;4.38;;;0.30;;
52530;SDS011;38441;52.894;6.040;2024-01-16T00:19:37;3.35;;;0.60;;
52530;SDS011;38441;52.894;6.040;2024-01-16T00:22:03;1.75;;;0.38;;
52530;SDS011;38441;52.894;6.040;2024-01-16T00:24:30;3.92;;;0.47;;
52530;SDS011;38441;52.894;6.040;2024-01-16T00:26:56;4.43;;;0.57;;
52530;SDS011;38441;52.894;6.040;2024-01-16T00:29:22;5.93;;;0.38;;
52530;SDS011;38441;52.894;6.040;2024-01-16T00:31:48;5.30;;;0.60;;
52530;SDS011;38441;52.894;6.040;2024-01-16T00:34:14;3.90;;;0.32;;
52530;SDS011;38441;52.894;6.040;2024-01-16T00:36:40;4.38;;;0.57;;
52530;SDS011;38441;52.894;6.040;2024-01-16T00:39:05;4.75;;;0.75;;
52530;SDS011;38441;52.894;6.040;2024-01-16T00:41:32;4.70;;;0.80;;
52530;SDS011;38441;52.894;6.040;2024-01-16T00:43:57;2.70;;;0.32;;
52530;SDS011;38441;52.894;6.040;2024-01-16T00:46:23;6.43;;;0.80;;
52530;SDS011;38441;52.894;6.040;2024-01-16T00:48:49;5.45;;;1.08;;
52530;SDS011;38441;52.894;6.040;2024-01-16T00:51:14;6.20;;;1.30;;
52530;SDS011;38441;52.894;6.040;2024-01-16T00:53:40;7.18;;;1.48;;
52530;SDS011;38441;52.894;6.040;2024-01-16T00:56:07;5.60;;;1.48;;
52530;SDS011;38441;52.894;6.040;2024-01-16T00:58:32;1.98;;;0.80;;
52530;SDS011;38441;52.894;6.040;2024-01-16T01:00:58;3.15;;;0.80;;
52530;SDS011;38441;52.894;6.040;2024-01-16T01:03:23;4.78;;;0.90;;
52530;SDS011;38441;52.894;6.040;2024-01-16T01:05:49;7.70;;;1.05;;
52530;SDS011;38441;52.894;6.040;2024-01-16T01:08:15;4.25;;;0.60;;
52530;SDS011;38441;52.894;6.040;2024-01-16T01:10:40;4.57;;;0.60;;
52530;SDS011;38441;52.894;6.040;2024-01-16T01:13:06;5.63;;;0.50;;
52530;SDS011;38441;52.894;6.040;2024-01-16T01:15:31;3.97;;;0.50;;
52530;SDS011;38441;52.894;6.040;2024-01-16T01:17:57;3.15;;;0.40;;
52530;SDS011;38441;52.894;6.040;2024-01-16T01:20:23;7.38;;;0.50;;
52530;SDS011;38441;52.894;6.040;2024-01-16T01:22:48;3.88;;;0.50;;
52530;SDS011;38441;52.894;6.040;2024-01-16T01:25:14;4.30;;;0.50;;
52530;SDS011;38441;52.894;6.040;2024-01-16T01:27:40;6.00;;;0.85;;
52530;SDS011;38441;52.894;6.040;2024-01-16T01:30:06;7.45;;;1.20;;
52530;SDS011;38441;52.894;6.040;2024-01-16T01:32:35;5.20;;;0.60;;
52530;SDS011;38441;52.894;6.040;2024-01-16T01:35:01;5.22;;;0.82;;
52530;SDS011;38441;52.894;6.040;2024-01-16T01:37:26;5.25;;;0.82;;
52530;SDS011;38441;52.894;6.040;2024-01-16T01:39:52;6.88;;;0.32;;
52530;SDS011;38441;52.894;6.040;2024-01-16T01:42:17;5.13;;;0.85;;
52530;SDS011;38441;52.894;6.040;2024-01-16T01:44:43;5.80;;;0.70;;
52530;SDS011;38441;52.894;6.040;2024-01-16T01:47:09;3.83;;;0.52;;
52530;SDS011;38441;52.894;6.040;2024-01-16T01:49:34;5.38;;;0.68;;
52530;SDS011;38441;52.894;6.040;2024-01-16T01:52:01;5.38;;;0.55;;
52530;SDS011;38441;52.894;6.040;2024-01-16T01:54:27;2.90;;;0.57;;
52530;SDS011;38441;52.894;6.040;2024-01-16T01:56:53;3.50;;;0.45;;
52530;SDS011;38441;52.894;6.040;2024-01-16T01:59:18;2.47;;;0.30;;
52530;SDS011;38441;52.894;6.040;2024-01-16T02:01:47;5.88;;;0.73;;
52530;SDS011;38441;52.894;6.040;2024-01-16T02:04:14;5.13;;;0.70;;
52530;SDS011;38441;52.894;6.040;2024-01-16T02:06:42;5.15;;;0.63;;
52530;SDS011;38441;52.894;6.040;2024-01-16T02:09:09;6.03;;;0.55;;
52530;SDS011;38441;52.894;6.040;2024-01-16T02:11:38;6.28;;;0.63;;
52530;SDS011;38441;52.894;6.040;2024-01-16T02:14:04;6.10;;;0.70;;
52530;SDS011;38441;52.894;6.040;2024-01-16T02:16:45;6.40;;;0.68;;
52530;SDS011;38441;52.894;6.040;2024-01-16T02:19:11;6.28;;;0.57;;
52530;SDS011;38441;52.894;6.040;2024-01-16T02:21:38;4.47;;;0.65;;
52530;SDS011;38441;52.894;6.040;2024-01-16T02:24:14;5.60;;;0.65;;
52530;SDS011;38441;52.894;6.040;2024-01-16T02:26:41;5.07;;;0.50;;
52530;SDS011;38441;52.894;6.040;2024-01-16T02:29:07;4.63;;;0.70;;
52530;SDS011;38441;52.894;6.040;2024-01-16T02:31:34;4.18;;;0.70;;
52530;SDS011;38441;52.894;6.040;2024-01-16T02:34:00;2.03;;;0.47;;
52530;SDS011;38441;52.894;6.040;2024-01-16T02:36:26;2.00;;;0.35;;
52530;SDS011;38441;52.894;6.040;2024-01-16T02:38:52;4.93;;;0.52;;
52530;SDS011;38441;52.894;6.040;2024-01-16T02:41:18;3.58;;;0.57;;
52530;SDS011;38441;52.894;6.040;2024-01-16T02:43:46;4.85;;;0.65;;
52530;SDS011;38441;52.894;6.040;2024-01-16T02:46:12;5.57;;;1.05;;
52530;SDS011;38441;52.894;6.040;2024-01-16T02:48:38;3.60;;;0.43;;
52530;SDS011;38441;52.894;6.040;2024-01-16T02:51:04;6.25;;;0.82;;
52530;SDS011;38441;52.894;6.040;2024-01-16T02:53:30;4.90;;;0.45;;
52530;SDS011;38441;52.894;6.040;2024-01-16T02:55:57;7.03;;;0.73;;
52530;SDS011;38441;52.894;6.040;2024-01-16T02:58:29;4.22;;;0.70;;
52530;SDS011;38441;52.894;6.040;2024-01-16T03:00:55;9.48;;;0.70;;
52530;SDS011;38441;52.894;6.040;2024-01-16T03:03:22;6.50;;;1.10;;
52530;SDS011;38441;52.894;6.040;2024-01-16T03:05:48;6.15;;;0.63;;
52530;SDS011;38441;52.894;6.040;2024-01-16T03:08:14;7.72;;;0.75;;
52530;SDS011;38441;52.894;6.040;2024-01-16T03:10:39;5.20;;;0.50;;
52530;SDS011;38441;52.894;6.040;2024-01-16T03:13:06;6.63;;;0.63;;
52530;SDS011;38441;52.894;6.040;2024-01-16T03:15:31;6.35;;;0.60;;
52530;SDS011;38441;52.894;6.040;2024-01-16T03:17:57;9.05;;;0.80;;
52530;SDS011;38441;52.894;6.040;2024-01-16T03:20:24;9.68;;;0.82;;
52530;SDS011;38441;52.894;6.040;2024-01-16T03:22:49;5.05;;;1.08;;
52530;SDS011;38441;52.894;6.040;2024-01-16T03:25:16;4.15;;;0.50;;
52530;SDS011;38441;52.894;6.040;2024-01-16T03:27:42;12.45;;;1.13;;
52530;SDS011;38441;52.894;6.040;2024-01-16T03:30:08;4.93;;;0.50;;
52530;SDS011;38441;52.894;6.040;2024-01-16T03:32:35;4.63;;;0.60;;
52530;SDS011;38441;52.894;6.040;2024-01-16T03:35:01;4.43;;;0.60;;
52530;SDS011;38441;52.894;6.040;2024-01-16T03:37:26;6.25;;;0.85;;
52530;SDS011;38441;52.894;6.040;2024-01-16T03:39:52;4.13;;;0.43;;
52530;SDS011;38441;52.894;6.040;2024-01-16T03:42:19;4.93;;;0.65;;
52530;SDS011;38441;52.894;6.040;2024-01-16T03:44:46;4.85;;;0.95;;
52530;SDS011;38441;52.894;6.040;2024-01-16T03:47:12;6.97;;;1.08;;
52530;SDS011;38441;52.894;6.040;2024-01-16T03:49:37;6.40;;;0.90;;
52530;SDS011;38441;52.894;6.040;2024-01-16T03:52:03;5.97;;;1.35;;
52530;SDS011;38441;52.894;6.040;2024-01-16T03:54:29;5.35;;;0.85;;
52530;SDS011;38441;52.894;6.040;2024-01-16T03:56:55;8.38;;;0.90;;
52530;SDS011;38441;52.894;6.040;2024-01-16T03:59:21;4.45;;;0.88;;
52530;SDS011;38441;52.894;6.040;2024-01-16T04:01:47;6.82;;;0.80;;
52530;SDS011;38441;52.894;6.040;2024-01-16T04:04:14;9.20;;;0.88;;
52530;SDS011;38441;52.894;6.040;2024-01-16T04:06:40;6.35;;;1.10;;
52530;SDS011;38441;52.894;6.040;2024-01-16T04:09:05;7.25;;;1.38;;
52530;SDS011;38441;52.894;6.040;2024-01-16T04:11:33;5.55;;;0.82;;
52530;SDS011;38441;52.894;6.040;2024-01-16T04:13:59;7.30;;;0.93;;
52530;SDS011;38441;52.894;6.040;2024-01-16T04:16:25;6.28;;;0.88;;
52530;SDS011;38441;52.894;6.040;2024-01-16T04:18:50;3.45;;;0.80;;
52530;SDS011;38441;52.894;6.040;2024-01-16T04:21:16;5.68;;;1.30;;
52530;SDS011;38441;52.894;6.040;2024-01-16T04:23:41;4.32;;;0.70;;
52530;SDS011;38441;52.894;6.040;2024-01-16T04:26:07;6.05;;;1.60;;
52530;SDS011;38441;52.894;6.040;2024-01-16T04:28:33;8.38;;;1.23;;
52530;SDS011;38441;52.894;6.040;2024-01-16T04:31:02;7.57;;;0.95;;
52530;SDS011;38441;52.894;6.040;2024-01-16T04:33:28;7.40;;;0.80;;
52530;SDS011;38441;52.894;6.040;2024-01-16T04:35:54;6.47;;;0.90;;
52530;SDS011;38441;52.894;6.040;2024-01-16T04:38:20;5.03;;;0.88;;
52530;SDS011;38441;52.894;6.040;2024-01-16T04:40:45;9.02;;;1.20;;
52530;SDS011;38441;52.894;6.040;2024-01-16T04:43:11;6.50;;;1.00;;
52530;SDS011;38441;52.894;6.040;2024-01-16T04:45:37;7.22;;;0.80;;
52530;SDS011;38441;52.894;6.040;2024-01-16T04:48:08;5.47;;;0.80;;
52530;SDS011;38441;52.894;6.040;2024-01-16T04:50:34;6.30;;;0.82;;
52530;SDS011;38441;52.894;6.040;2024-01-16T04:53:00;8.20;;;0.90;;
52530;SDS011;38441;52.894;6.040;2024-01-16T04:55:27;9.77;;;2.40;;
52530;SDS011;38441;52.894;6.040;2024-01-16T04:57:56;8.73;;;3.15;;
52530;SDS011;38441;52.894;6.040;2024-01-16T05:00:23;8.13;;;2.10;;
52530;SDS011;38441;52.894;6.040;2024-01-16T05:02:48;7.63;;;1.90;;
52530;SDS011;38441;52.894;6.040;2024-01-16T05:05:14;6.53;;;1.65;;
52530;SDS011;38441;52.894;6.040;2024-01-16T05:07:41;6.30;;;1.20;;
52530;SDS011;38441;52.894;6.040;2024-01-16T05:10:09;5.30;;;1.52;;
52530;SDS011;38441;52.894;6.040;2024-01-16T05:12:37;7.97;;;2.83;;
52530;SDS011;38441;52.894;6.040;2024-01-16T05:15:04;8.63;;;2.17;;
52530;SDS011;38441;52.894;6.040;2024-01-16T05:17:30;5.70;;;1.42;;
52530;SDS011;38441;52.894;6.040;2024-01-16T05:19:56;9.63;;;1.85;;
52530;SDS011;38441;52.894;6.040;2024-01-16T05:22:21;5.28;;;1.00;;
52530;SDS011;38441;52.894;6.040;2024-01-16T05:24:47;5.32;;;1.10;;
52530;SDS011;38441;52.894;6.040;2024-01-16T05:27:13;6.57;;;1.40;;
52530;SDS011;38441;52.894;6.040;2024-01-16T05:29:40;4.57;;;0.98;;
52530;SDS011;38441;52.894;6.040;2024-01-16T05:32:06;7.05;;;0.95;;
52530;SDS011;38441;52.894;6.040;2024-01-16T05:34:32;5.82;;;0.80;;
52530;SDS011;38441;52.894;6.040;2024-01-16T05:36:57;3.83;;;0.70;;
52530;SDS011;38441;52.894;6.040;2024-01-16T05:39:23;4.45;;;1.38;;
52530;SDS011;38441;52.894;6.040;2024-01-16T05:41:49;3.17;;;1.00;;
52530;SDS011;38441;52.894;6.040;2024-01-16T05:44:15;4.60;;;1.10;;
52530;SDS011;38441;52.894;6.040;2024-01-16T05:46:41;5.68;;;0.93;;
52530;SDS011;38441;52.894;6.040;2024-01-16T05:49:06;4.88;;;1.02;;
52530;SDS011;38441;52.894;6.040;2024-01-16T05:51:32;4.07;;;0.70;;
52530;SDS011;38441;52.894;6.040;2024-01-16T05:53:58;4.35;;;0.70;;
52530;SDS011;38441;52.894;6.040;2024-01-16T05:56:24;5.20;;;0.73;;
52530;SDS011;38441;52.894;6.040;2024-01-16T06:01:40;6.80;;;0.77;;
52530;SDS011;38441;52.894;6.040;2024-01-16T06:04:06;8.85;;;1.00;;
52530;SDS011;38441;52.894;6.040;2024-01-16T06:06:32;3.75;;;0.60;;
52530;SDS011;38441;52.894;6.040;2024-01-16T06:08:58;4.22;;;0.60;;
52530;SDS011;38441;52.894;6.040;2024-01-16T06:11:29;6.47;;;1.17;;
52530;SDS011;38441;52.894;6.040;2024-01-16T06:13:56;4.75;;;0.70;;
52530;SDS011;38441;52.894;6.040;2024-01-16T06:16:22;1.80;;;0.60;;
52530;SDS011;38441;52.894;6.040;2024-01-16T06:18:47;3.92;;;0.60;;
52530;SDS011;38441;52.894;6.040;2024-01-16T06:21:13;3.78;;;0.80;;
52530;SDS011;38441;52.894;6.040;2024-01-16T06:23:42;4.18;;;0.50;;
52530;SDS011;38441;52.894;6.040;2024-01-16T06:26:08;4.18;;;0.50;;
52530;SDS011;38441;52.894;6.040;2024-01-16T06:28:34;4.95;;;0.80;;
52530;SDS011;38441;52.894;6.040;2024-01-16T06:31:00;8.57;;;0.70;;
52530;SDS011;38441;52.894;6.040;2024-01-16T06:33:26;5.78;;;1.27;;
52530;SDS011;38441;52.894;6.040;2024-01-16T06:35:51;6.53;;;0.82;;
52530;SDS011;38441;52.894;6.040;2024-01-16T06:38:22;3.53;;;0.60;;
52530;SDS011;38441;52.894;6.040;2024-01-16T06:40:48;2.45;;;0.70;;
52530;SDS011;38441;52.894;6.040;2024-01-16T06:43:14;3.97;;;0.70;;
52530;SDS011;38441;52.894;6.040;2024-01-16T06:45:43;3.85;;;0.50;;
52530;SDS011;38441;52.894;6.040;2024-01-16T06:48:09;2.58;;;0.40;;
52530;SDS011;38441;52.894;6.040;2024-01-16T06:50:35;2.78;;;0.73;;
52530;SDS011;38441;52.894;6.040;2024-01-16T06:53:01;5.07;;;0.68;;
52530;SDS011;38441;52.894;6.040;2024-01-16T06:55:27;12.95;;;0.80;;
52530;SDS011;38441;52.894;6.040;2024-01-16T06:57:52;5.40;;;1.45;;
52530;SDS011;38441;52.894;6.040;2024-01-16T07:00:19;3.17;;;0.50;;
52530;SDS011;38441;52.894;6.040;2024-01-16T07:02:49;3.70;;;0.95;;
52530;SDS011;38441;52.894;6.040;2024-01-16T07:05:16;4.28;;;0.50;;
52530;SDS011;38441;52.894;6.040;2024-01-16T07:07:42;3.15;;;0.40;;
52530;SDS011;38441;52.894;6.040;2024-01-16T07:10:07;4.72;;;0.47;;
52530;SDS011;38441;52.894;6.040;2024-01-16T07:12:38;6.50;;;0.70;;
52530;SDS011;38441;52.894;6.040;2024-01-16T07:15:04;5.65;;;0.88;;
52530;SDS011;38441;52.894;6.040;2024-01-16T07:17:30;3.30;;;0.60;;
52530;SDS011;38441;52.894;6.040;2024-01-16T07:19:56;3.05;;;0.55;;
52530;SDS011;38441;52.894;6.040;2024-01-16T07:22:23;3.58;;;0.60;;
52530;SDS011;38441;52.894;6.040;2024-01-16T07:24:49;4.93;;;0.80;;
52530;SDS011;38441;52.894;6.040;2024-01-16T07:27:14;5.22;;;0.80;;
52530;SDS011;38441;52.894;6.040;2024-01-16T07:29:40;2.88;;;0.60;;
52530;SDS011;38441;52.894;6.040;2024-01-16T07:32:06;4.75;;;0.35;;
52530;SDS011;38441;52.894;6.040;2024-01-16T07:34:32;5.35;;;0.88;;
52530;SDS011;38441;52.894;6.040;2024-01-16T07:36:58;6.22;;;0.98;;
52530;SDS011;38441;52.894;6.040;2024-01-16T07:39:23;2.05;;;0.52;;
52530;SDS011;38441;52.894;6.040;2024-01-16T07:41:49;5.57;;;0.73;;
52530;SDS011;38441;52.894;6.040;2024-01-16T07:44:15;6.22;;;1.10;;
52530;SDS011;38441;52.894;6.040;2024-01-16T07:46:40;6.57;;;0.90;;
52530;SDS011;38441;52.894;6.040;2024-01-16T07:49:06;3.22;;;0.80;;
52530;SDS011;38441;52.894;6.040;2024-01-16T07:51:32;8.25;;;1.48;;
52530;SDS011;38441;52.894;6.040;2024-01-16T07:54:04;5.60;;;1.70;;
52530;SDS011;38441;52.894;6.040;2024-01-16T07:56:31;9.20;;;2.42;;
52530;SDS011;38441;52.894;6.040;2024-01-16T07:58:58;24.58;;;9.65;;
52530;SDS011;38441;52.894;6.040;2024-01-16T08:01:24;11.65;;;5.47;;
52530;SDS011;38441;52.894;6.040;2024-01-16T08:03:49;8.15;;;4.95;;
52530;SDS011;38441;52.894;6.040;2024-01-16T08:06:15;12.32;;;4.50;;
52530;SDS011;38441;52.894;6.040;2024-01-16T08:08:41;7.78;;;2.78;;
52530;SDS011;38441;52.894;6.040;2024-01-16T08:11:06;4.78;;;1.67;;
52530;SDS011;38441;52.894;6.040;2024-01-16T08:13:32;3.70;;;1.85;;
52530;SDS011;38441;52.894;6.040;2024-01-16T08:15:58;6.25;;;1.90;;
52530;SDS011;38441;52.894;6.040;2024-01-16T08:18:24;5.68;;;0.93;;
52530;SDS011;38441;52.894;6.040;2024-01-16T08:20:50;6.15;;;1.23;;
52530;SDS011;38441;52.894;6.040;2024-01-16T08:23:15;4.88;;;1.00;;
52530;SDS011;38441;52.894;6.040;2024-01-16T08:25:41;4.05;;;0.90;;
52530;SDS011;38441;52.894;6.040;2024-01-16T08:28:06;3.83;;;0.70;;
52530;SDS011;38441;52.894;6.040;2024-01-16T08:30:32;3.13;;;1.17;;
52530;SDS011;38441;52.894;6.040;2024-01-16T08:32:58;3.63;;;0.40;;
52530;SDS011;38441;52.894;6.040;2024-01-16T08:35:24;4.95;;;0.90;;
52530;SDS011;38441;52.894;6.040;2024-01-16T08:37:49;4.38;;;0.80;;
52530;SDS011;38441;52.894;6.040;2024-01-16T08:40:15;3.50;;;0.90;;
52530;SDS011;38441;52.894;6.040;2024-01-16T08:42:41;5.25;;;0.73;;
52530;SDS011;38441;52.894;6.040;2024-01-16T08:45:06;5.57;;;1.17;;
52530;SDS011;38441;52.894;6.040;2024-01-16T08:47:32;9.25;;;2.45;;
52530;SDS011;38441;52.894;6.040;2024-01-16T08:49:58;6.22;;;2.80;;
52530;SDS011;38441;52.894;6.040;2024-01-16T08:52:24;7.93;;;3.47;;
52530;SDS011;38441;52.894;6.040;2024-01-16T08:54:49;10.77;;;4.80;;
52530;SDS011;38441;52.894;6.040;2024-01-16T08:57:15;8.40;;;3.63;;
52530;SDS011;38441;52.894;6.040;2024-01-16T08:59:41;6.57;;;2.75;;
52530;SDS011;38441;52.894;6.040;2024-01-16T09:02:07;7.95;;;2.63;;
52530;SDS011;38441;52.894;6.040;2024-01-16T09:04:32;4.18;;;1.75;;
52530;SDS011;38441;52.894;6.040;2024-01-16T09:06:59;8.02;;;1.88;;
52530;SDS011;38441;52.894;6.040;2024-01-16T09:09:26;5.53;;;1.55;;
52530;SDS011;38441;52.894;6.040;2024-01-16T09:11:51;5.47;;;1.80;;
52530;SDS011;38441;52.894;6.040;2024-01-16T09:14:17;7.20;;;2.30;;
52530;SDS011;38441;52.894;6.040;2024-01-16T09:16:45;7.25;;;2.72;;
52530;SDS011;38441;52.894;6.040;2024-01-16T09:19:10;6.05;;;2.50;;
52530;SDS011;38441;52.894;6.040;2024-01-16T09:21:36;6.90;;;2.88;;
52530;SDS011;38441;52.894;6.040;2024-01-16T09:24:02;8.15;;;3.42;;
52530;SDS011;38441;52.894;6.040;2024-01-16T09:26:27;8.05;;;3.42;;
52530;SDS011;38441;52.894;6.040;2024-01-16T09:28:53;8.98;;;3.17;;
52530;SDS011;38441;52.894;6.040;2024-01-16T09:31:19;10.68;;;3.25;;
52530;SDS011;38441;52.894;6.040;2024-01-16T09:33:44;7.68;;;3.42;;
52530;SDS011;38441;52.894;6.040;2024-01-16T09:36:10;8.98;;;3.40;;
52530;SDS011;38441;52.894;6.040;2024-01-16T09:38:36;10.88;;;4.57;;
52530;SDS011;38441;52.894;6.040;2024-01-16T09:41:01;7.40;;;3.50;;
52530;SDS011;38441;52.894;6.040;2024-01-16T09:43:28;8.13;;;3.53;;
52530;SDS011;38441;52.894;6.040;2024-01-16T09:45:55;8.65;;;3.15;;
52530;SDS011;38441;52.894;6.040;2024-01-16T09:48:21;7.63;;;3.03;;
52530;SDS011;38441;52.894;6.040;2024-01-16T09:50:47;7.32;;;3.40;;
52530;SDS011;38441;52.894;6.040;2024-01-16T09:53:13;7.13;;;3.17;;
52530;SDS011;38441;52.894;6.040;2024-01-16T09:55:38;7.80;;;3.20;;
52530;SDS011;38441;52.894;6.040;2024-01-16T09:58:05;7.25;;;2.58;;
52530;SDS011;38441;52.894;6.040;2024-01-16T10:00:33;7.28;;;2.53;;
52530;SDS011;38441;52.894;6.040;2024-01-16T10:02:59;5.63;;;2.13;;
52530;SDS011;38441;52.894;6.040;2024-01-16T10:05:26;5.90;;;1.88;;
52530;SDS011;38441;52.894;6.040;2024-01-16T10:07:52;6.72;;;1.48;;
52530;SDS011;38441;52.894;6.040;2024-01-16T10:10:18;3.40;;;1.10;;
52530;SDS011;38441;52.894;6.040;2024-01-16T10:12:45;6.45;;;1.27;;
52530;SDS011;38441;52.894;6.040;2024-01-16T10:15:12;3.58;;;0.75;;
52530;SDS011;38441;52.894;6.040;2024-01-16T10:17:43;3.33;;;0.88;;
52530;SDS011;38441;52.894;6.040;2024-01-16T10:20:15;3.85;;;0.90;;
52530;SDS011;38441;52.894;6.040;2024-01-16T10:22:53;2.25;;;0.70;;
52530;SDS011;38441;52.894;6.040;2024-01-16T10:25:19;2.10;;;0.50;;
52530;SDS011;38441;52.894;6.040;2024-01-16T10:27:46;3.20;;;0.80;;
52530;SDS011;38441;52.894;6.040;2024-01-16T10:30:12;4.50;;;0.80;;
52530;SDS011;38441;52.894;6.040;2024-01-16T10:32:39;2.53;;;0.70;;
52530;SDS011;38441;52.894;6.040;2024-01-16T10:35:13;1.45;;;0.55;;
52530;SDS011;38441;52.894;6.040;2024-01-16T10:40:18;4.20;;;1.17;;
52530;SDS011;38441;52.894;6.040;2024-01-16T10:42:46;1.63;;;0.70;;
52530;SDS011;38441;52.894;6.040;2024-01-16T10:45:21;3.75;;;0.75;;
52530;SDS011;38441;52.894;6.040;2024-01-16T10:47:47;2.80;;;0.57;;
52530;SDS011;38441;52.894;6.040;2024-01-16T10:50:14;4.90;;;0.77;;
52530;SDS011;38441;52.894;6.040;2024-01-16T10:52:47;1.95;;;0.65;;
52530;SDS011;38441;52.894;6.040;2024-01-16T10:55:25;5.93;;;0.90;;
52530;SDS011;38441;52.894;6.040;2024-01-16T10:57:53;4.47;;;0.55;;
52530;SDS011;38441;52.894;6.040;2024-01-16T11:00:21;5.00;;;0.77;;
52530;SDS011;38441;52.894;6.040;2024-01-16T11:05:25;4.65;;;1.02;;
52530;SDS011;38441;52.894;6.040;2024-01-16T11:07:55;4.43;;;0.70;;
52530;SDS011;38441;52.894;6.040;2024-01-16T11:10:23;3.60;;;0.93;;
52530;SDS011;38441;52.894;6.040;2024-01-16T11:12:50;6.55;;;1.25;;
52530;SDS011;38441;52.894;6.040;2024-01-16T11:15:17;6.22;;;1.00;;
52530;SDS011;38441;52.894;6.040;2024-01-16T11:17:44;4.22;;;1.05;;
52530;SDS011;38441;52.894;6.040;2024-01-16T11:20:11;11.48;;;4.00;;
52530;SDS011;38441;52.894;6.040;2024-01-16T11:22:39;10.23;;;4.45;;
52530;SDS011;38441;52.894;6.040;2024-01-16T11:25:10;10.95;;;3.53;;
52530;SDS011;38441;52.894;6.040;2024-01-16T11:27:37;5.70;;;2.30;;
52530;SDS011;38441;52.894;6.040;2024-01-16T11:30:07;7.40;;;2.47;;
52530;SDS011;38441;52.894;6.040;2024-01-16T11:32:37;6.68;;;2.03;;
52530;SDS011;38441;52.894;6.040;2024-01-16T11:35:05;8.45;;;2.00;;
52530;SDS011;38441;52.894;6.040;2024-01-16T11:37:32;8.35;;;1.80;;
52530;SDS011;38441;52.894;6.040;2024-01-16T11:42:43;4.85;;;1.65;;
52530;SDS011;38441;52.894;6.040;2024-01-16T11:48:11;6.97;;;1.83;;
52530;SDS011;38441;52.894;6.040;2024-01-16T11:50:38;4.93;;;1.33;;
52530;SDS011;38441;52.894;6.040;2024-01-16T11:53:05;3.38;;;1.35;;
52530;SDS011;38441;52.894;6.040;2024-01-16T12:01:07;5.03;;;1.45;;
52530;SDS011;38441;52.894;6.040;2024-01-16T12:03:33;6.60;;;2.47;;
52530;SDS011;38441;52.894;6.040;2024-01-16T12:05:59;5.72;;;2.35;;
52530;SDS011;38441;52.894;6.040;2024-01-16T12:08:25;6.13;;;2.38;;
52530;SDS011;38441;52.894;6.040;2024-01-16T12:10:51;6.47;;;2.38;;
52530;SDS011;38441;52.894;6.040;2024-01-16T12:13:18;6.38;;;2.50;;
52530;SDS011;38441;52.894;6.040;2024-01-16T12:15:43;5.07;;;2.05;;
52530;SDS011;38441;52.894;6.040;2024-01-16T12:18:09;10.23;;;2.78;;
52530;SDS011;38441;52.894;6.040;2024-01-16T12:20:35;5.15;;;3.00;;
52530;SDS011;38441;52.894;6.040;2024-01-16T12:23:03;5.25;;;2.60;;
52530;SDS011;38441;52.894;6.040;2024-01-16T12:25:33;8.30;;;2.67;;
52530;SDS011;38441;52.894;6.040;2024-01-16T12:28:03;12.52;;;3.45;;
52530;SDS011;38441;52.894;6.040;2024-01-16T12:30:33;6.53;;;3.35;;
52530;SDS011;38441;52.894;6.040;2024-01-16T12:33:03;8.68;;;3.75;;
52530;SDS011;38441;52.894;6.040;2024-01-16T12:35:32;9.32;;;3.72;;
52530;SDS011;38441;52.894;6.040;2024-01-16T12:38:01;6.63;;;3.13;;
52530;SDS011;38441;52.894;6.040;2024-01-16T12:40:28;9.90;;;3.70;;
52530;SDS011;38441;52.894;6.040;2024-01-16T12:42:54;12.35;;;3.70;;
52530;SDS011;38441;52.894;6.040;2024-01-16T12:45:20;9.18;;;3.80;;
52530;SDS011;38441;52.894;6.040;2024-01-16T12:47:51;8.13;;;3.58;;
52530;SDS011;38441;52.894;6.040;2024-01-16T12:50:36;6.70;;;2.92;;
52530;SDS011;38441;52.894;6.040;2024-01-16T12:53:06;7.18;;;3.58;;
52530;SDS011;38441;52.894;6.040;2024-01-16T12:55:33;7.68;;;3.63;;
52530;SDS011;38441;52.894;6.040;2024-01-16T13:00:49;10.30;;;3.42;;
52530;SDS011;38441;52.894;6.040;2024-01-16T13:03:16;6.50;;;2.92;;
52530;SDS011;38441;52.894;6.040;2024-01-16T13:05:46;6.45;;;3.17;;
52530;SDS011;38441;52.894;6.040;2024-01-16T13:08:23;8.10;;;2.72;;
52530;SDS011;38441;52.894;6.040;2024-01-16T13:13:30;6.78;;;2.83;;
52530;SDS011;38441;52.894;6.040;2024-01-16T13:15:57;6.25;;;2.45;;
52530;SDS011;38441;52.894;6.040;2024-01-16T13:18:24;6.53;;;2.17;;
52530;SDS011;38441;52.894;6.040;2024-01-16T13:20:51;8.45;;;2.42;;
52530;SDS011;38441;52.894;6.040;2024-01-16T13:23:18;8.35;;;2.10;;
52530;SDS011;38441;52.894;6.040;2024-01-16T13:25:45;8.50;;;2.30;;
52530;SDS011;38441;52.894;6.040;2024-01-16T13:28:15;10.25;;;2.05;;
52530;SDS011;38441;52.894;6.040;2024-01-16T13:30:41;11.10;;;2.00;;
52530;SDS011;38441;52.894;6.040;2024-01-16T13:33:08;6.47;;;1.85;;
52530;SDS011;38441;52.894;6.040;2024-01-16T13:35:34;3.28;;;1.30;;
52530;SDS011;38441;52.894;6.040;2024-01-16T13:38:04;8.57;;;1.75;;
52530;SDS011;38441;52.894;6.040;2024-01-16T13:40:30;4.65;;;1.33;;
52530;SDS011;38441;52.894;6.040;2024-01-16T13:42:57;4.68;;;1.45;;
52530;SDS011;38441;52.894;6.040;2024-01-16T13:45:22;5.85;;;1.67;;
52530;SDS011;38441;52.894;6.040;2024-01-16T13:47:48;5.63;;;1.27;;
52530;SDS011;38441;52.894;6.040;2024-01-16T13:50:14;5.03;;;1.40;;
52530;SDS011;38441;52.894;6.040;2024-01-16T13:52:40;7.47;;;1.80;;
52530;SDS011;38441;52.894;6.040;2024-01-16T13:55:06;7.55;;;2.42;;
52530;SDS011;38441;52.894;6.040;2024-01-16T13:57:32;6.30;;;2.28;;
52530;SDS011;38441;52.894;6.040;2024-01-16T14:00:01;8.23;;;2.50;;
52530;SDS011;38441;52.894;6.040;2024-01-16T14:02:31;9.88;;;2.45;;
52530;SDS011;38441;52.894;6.040;2024-01-16T14:04:59;5.43;;;1.67;;
52530;SDS011;38441;52.894;6.040;2024-01-16T14:07:25;7.38;;;2.05;;
52530;SDS011;38441;52.894;6.040;2024-01-16T14:09:51;8.75;;;2.10;;
52530;SDS011;38441;52.894;6.040;2024-01-16T14:12:17;5.35;;;1.70;;
52530;SDS011;38441;52.894;6.040;2024-01-16T14:14:44;6.43;;;2.05;;
52530;SDS011;38441;52.894;6.040;2024-01-16T14:17:10;7.35;;;1.85;;
52530;SDS011;38441;52.894;6.040;2024-01-16T14:19:36;6.28;;;1.50;;
52530;SDS011;38441;52.894;6.040;2024-01-16T14:22:03;4.10;;;1.40;;
52530;SDS011;38441;52.894;6.040;2024-01-16T14:24:29;4.13;;;1.58;;
52530;SDS011;38441;52.894;6.040;2024-01-16T14:26:55;6.35;;;1.83;;
52530;SDS011;38441;52.894;6.040;2024-01-16T14:29:23;6.53;;;1.77;;
52530;SDS011;38441;52.894;6.040;2024-01-16T14:31:49;5.72;;;1.88;;
52530;SDS011;38441;52.894;6.040;2024-01-16T14:34:15;7.78;;;1.60;;
52530;SDS011;38441;52.894;6.040;2024-01-16T14:36:41;8.10;;;1.60;;
52530;SDS011;38441;52.894;6.040;2024-01-16T14:39:07;6.07;;;1.23;;
52530;SDS011;38441;52.894;6.040;2024-01-16T14:41:41;4.93;;;1.30;;
52530;SDS011;38441;52.894;6.040;2024-01-16T14:44:09;6.55;;;1.30;;
52530;SDS011;38441;52.894;6.040;2024-01-16T14:46:39;6.28;;;1.35;;
52530;SDS011;38441;52.894;6.040;2024-01-16T14:49:05;9.73;;;1.53;;
52530;SDS011;38441;52.894;6.040;2024-01-16T14:51:31;3.72;;;1.45;;
52530;SDS011;38441;52.894;6.040;2024-01-16T14:53:57;5.10;;;1.02;;
52530;SDS011;38441;52.894;6.040;2024-01-16T14:56:23;5.55;;;1.55;;
52530;SDS011;38441;52.894;6.040;2024-01-16T14:58:50;10.20;;;1.33;;
52530;SDS011;38441;52.894;6.040;2024-01-16T15:01:17;6.63;;;1.35;;
52530;SDS011;38441;52.894;6.040;2024-01-16T15:03:43;7.22;;;1.67;;
52530;SDS011;38441;52.894;6.040;2024-01-16T15:06:08;10.05;;;1.40;;
52530;SDS011;38441;52.894;6.040;2024-01-16T15:08:38;6.05;;;1.20;;